createdAt,value
2023-04-27T00:02:03.135Z,83.65
2023-04-27T00:04:30.708Z,82.76
2023-04-27T00:07:00.846Z,85.40
2023-04-27T00:09:27.938Z,90.00
2023-04-27T00:11:54.998Z,87.00
2023-04-27T00:14:22.100Z,89.73
2023-04-27T00:16:48.940Z,88.86
2023-04-27T00:19:16.557Z,87.11
2023-04-27T00:21:43.356Z,86.57
2023-04-27T00:24:10.720Z,84.27
2023-04-27T00:26:38.791Z,82.58
2023-04-27T00:29:05.941Z,82.40
2023-04-27T00:31:32.778Z,80.34
2023-04-27T00:34:00.060Z,80.81
2023-04-27T00:36:27.246Z,80.69
2023-04-27T00:38:54.300Z,80.02
2023-04-27T00:41:23.042Z,80.05
2023-04-27T00:43:50.198Z,80.24
2023-04-27T00:46:17.552Z,79.47
2023-04-27T00:48:44.843Z,78.52
2023-04-27T00:51:11.882Z,80.04
2023-04-27T00:53:39.406Z,79.53
2023-04-27T00:56:07.733Z,81.45
2023-04-27T00:58:35.069Z,81.85
2023-04-27T01:01:02.073Z,81.66
2023-04-27T01:03:30.720Z,80.29
2023-04-27T01:05:59.745Z,82.70
2023-04-27T01:08:26.990Z,81.46
2023-04-27T01:10:53.767Z,80.25
2023-04-27T01:13:20.928Z,82.82
2023-04-27T01:15:47.776Z,83.96
2023-04-27T01:18:14.907Z,82.82
2023-04-27T01:20:42.295Z,84.00
2023-04-27T01:23:14.265Z,82.87
2023-04-27T01:25:43.177Z,86.27
2023-04-27T01:28:10.325Z,85.20
2023-04-27T01:30:37.163Z,86.45
2023-04-27T01:33:04.467Z,87.30
2023-04-27T01:35:31.801Z,87.70
2023-04-27T01:37:59.330Z,88.67
2023-04-27T01:40:26.150Z,87.69
2023-04-27T01:42:53.196Z,88.63
2023-04-27T01:45:20.018Z,88.51
2023-04-27T01:47:47.156Z,90.29
2023-04-27T01:50:13.968Z,89.37
2023-04-27T01:52:41.061Z,90.71
2023-04-27T01:55:08.342Z,87.30
2023-04-27T01:57:35.491Z,88.39
2023-04-27T02:00:02.308Z,88.48
2023-04-27T02:02:29.459Z,90.02
2023-04-27T02:04:56.675Z,92.18
2023-04-27T02:07:23.866Z,92.43
2023-04-27T02:09:51.332Z,92.40
2023-04-27T02:12:18.414Z,92.40
2023-04-27T02:14:45.183Z,91.67
2023-04-27T02:17:15.062Z,93.00
2023-04-27T02:19:41.829Z,95.21
2023-04-27T02:22:08.878Z,96.87
2023-04-27T02:24:36.568Z,95.93
2023-04-27T02:27:03.799Z,96.57
2023-04-27T02:29:31.542Z,96.30
2023-04-27T02:31:59.202Z,97.37
2023-04-27T02:34:26.197Z,97.38
2023-04-27T02:36:53.261Z,97.54
2023-04-27T02:39:21.354Z,98.94
2023-04-27T02:41:48.513Z,99.53
2023-04-27T02:44:15.312Z,100.00
2023-04-27T02:46:42.443Z,100.00
2023-04-27T02:49:09.280Z,100.00
2023-04-27T02:51:36.358Z,100.00
2023-04-27T02:54:03.704Z,100.00
2023-04-27T02:56:31.213Z,100.00
2023-04-27T02:58:58.031Z,100.00
2023-04-27T03:01:25.175Z,100.00
2023-04-27T03:03:52.116Z,100.00
2023-04-27T03:06:19.460Z,100.00
2023-04-27T03:08:46.296Z,100.00
2023-04-27T03:11:13.380Z,100.00
2023-04-27T03:13:43.216Z,100.00
2023-04-27T03:16:13.347Z,100.00
2023-04-27T03:18:40.607Z,100.00
2023-04-27T03:21:09.149Z,100.00
2023-04-27T03:23:36.279Z,100.00
2023-04-27T03:26:07.893Z,100.00
2023-04-27T03:28:34.764Z,100.00
2023-04-27T03:31:12.000Z,100.00
2023-04-27T03:33:39.748Z,100.00
2023-04-27T03:36:07.889Z,100.00
2023-04-27T03:38:35.683Z,100.00
2023-04-27T03:41:02.954Z,100.00
2023-04-27T03:43:29.881Z,100.00
2023-04-27T03:45:57.462Z,100.00
2023-04-27T03:48:24.346Z,100.00
2023-04-27T03:50:51.483Z,100.00
2023-04-27T03:53:18.294Z,100.00
2023-04-27T03:55:45.366Z,100.00
2023-04-27T03:58:12.337Z,100.00
2023-04-27T04:00:40.196Z,100.00
2023-04-27T04:03:08.158Z,100.00
2023-04-27T04:05:36.130Z,100.00
2023-04-27T04:08:03.499Z,100.00
2023-04-27T04:10:30.689Z,100.00
2023-04-27T04:12:57.510Z,100.00
2023-04-27T04:15:24.612Z,100.00
2023-04-27T04:17:51.486Z,100.00
2023-04-27T04:20:18.655Z,100.00
2023-04-27T04:22:45.549Z,100.00
2023-04-27T04:25:13.156Z,100.00
2023-04-27T04:27:41.060Z,100.00
2023-04-27T04:30:08.552Z,100.00
2023-04-27T04:32:38.183Z,100.00
2023-04-27T04:35:06.085Z,100.00
2023-04-27T04:37:34.603Z,100.00
2023-04-27T04:40:08.894Z,100.00
2023-04-27T04:42:37.517Z,100.00
2023-04-27T04:45:05.347Z,100.00
2023-04-27T04:47:32.368Z,100.00
2023-04-27T04:49:59.760Z,100.00
2023-04-27T04:52:26.532Z,100.00
2023-04-27T04:54:53.733Z,100.00
2023-04-27T04:57:20.626Z,100.00
2023-04-27T04:59:47.734Z,100.00
2023-04-27T05:02:14.602Z,99.27
2023-04-27T05:04:41.844Z,97.56
2023-04-27T05:07:08.676Z,97.57
2023-04-27T05:09:35.729Z,96.09
2023-04-27T05:12:02.617Z,92.90
2023-04-27T05:14:29.709Z,91.10
2023-04-27T05:16:56.525Z,88.91
2023-04-27T05:19:24.733Z,89.68
2023-04-27T05:21:51.601Z,87.42
2023-04-27T05:24:18.714Z,87.08
2023-04-27T05:26:45.515Z,86.69
2023-04-27T05:29:12.850Z,86.25
2023-04-27T05:31:39.824Z,85.20
2023-04-27T05:34:10.062Z,85.82
2023-04-27T05:36:36.938Z,84.61
2023-04-27T05:39:04.113Z,82.85
2023-04-27T05:41:31.189Z,81.76
2023-04-27T05:43:58.240Z,80.17
2023-04-27T05:46:25.087Z,77.63
2023-04-27T05:48:52.178Z,79.19
2023-04-27T05:51:18.950Z,77.79
2023-04-27T05:53:46.519Z,76.68
2023-04-27T05:56:13.334Z,73.76
2023-04-27T05:58:40.438Z,75.13
2023-04-27T06:01:07.372Z,72.05
2023-04-27T06:03:34.617Z,68.93
2023-04-27T06:06:02.704Z,67.74
2023-04-27T06:08:30.774Z,67.61
2023-04-27T06:10:57.790Z,66.60
2023-04-27T06:13:24.884Z,65.32
2023-04-27T06:15:51.864Z,60.58
2023-04-27T06:18:19.019Z,62.58
2023-04-27T06:20:47.035Z,60.49
2023-04-27T06:23:14.162Z,61.90
2023-04-27T06:25:44.369Z,60.84
2023-04-27T06:28:11.873Z,58.58
2023-04-27T06:30:39.939Z,56.79
2023-04-27T06:33:07.174Z,55.88
2023-04-27T06:35:33.974Z,57.03
2023-04-27T06:38:01.056Z,56.94
2023-04-27T06:40:28.033Z,55.94
2023-04-27T06:42:55.245Z,55.17
2023-04-27T06:45:22.013Z,55.14
2023-04-27T06:47:49.074Z,55.07
2023-04-27T06:50:16.572Z,54.21
2023-04-27T06:52:43.756Z,56.64
2023-04-27T06:55:10.629Z,54.17
2023-04-27T06:57:37.752Z,50.71
2023-04-27T07:00:05.401Z,51.40
2023-04-27T07:02:32.548Z,51.62
2023-04-27T07:04:59.564Z,51.08
2023-04-27T07:07:26.679Z,52.83
2023-04-27T07:09:53.428Z,53.41
2023-04-27T07:12:20.470Z,50.35
2023-04-27T07:14:47.271Z,49.71
2023-04-27T07:17:14.399Z,49.85
2023-04-27T07:19:41.831Z,49.44
2023-04-27T07:22:10.042Z,47.25
2023-04-27T07:24:39.910Z,47.18
2023-04-27T07:27:07.229Z,45.37
2023-04-27T07:29:34.431Z,45.12
2023-04-27T07:32:02.132Z,48.80
2023-04-27T07:34:35.045Z,46.70
2023-04-27T07:37:09.462Z,47.29
2023-04-27T07:39:36.809Z,47.11
2023-04-27T07:42:04.103Z,48.23
2023-04-27T07:44:31.087Z,46.21
2023-04-27T07:46:58.608Z,45.66
2023-04-27T07:49:26.327Z,44.37
2023-04-27T07:51:53.477Z,43.99
2023-04-27T07:54:20.274Z,44.18
2023-04-27T07:56:47.464Z,39.73
2023-04-27T07:59:15.730Z,39.70
2023-04-27T08:01:43.204Z,40.24
2023-04-27T08:04:10.237Z,41.69
2023-04-27T08:06:38.331Z,39.97
2023-04-27T08:09:05.901Z,38.73
2023-04-27T08:11:32.952Z,39.76
2023-04-27T08:13:59.742Z,41.97
2023-04-27T08:16:29.672Z,39.68
2023-04-27T08:18:57.533Z,38.78
2023-04-27T08:21:25.749Z,36.70
2023-04-27T08:23:52.614Z,36.84
2023-04-27T08:26:19.714Z,37.65
2023-04-27T08:28:47.472Z,36.08
2023-04-27T08:31:14.595Z,37.42
2023-04-27T08:33:41.715Z,37.41
2023-04-27T08:36:09.056Z,37.95
2023-04-27T08:38:36.022Z,36.90
2023-04-27T08:41:14.512Z,37.16
2023-04-27T08:43:49.883Z,33.97
2023-04-27T08:46:27.203Z,37.19
2023-04-27T08:48:54.917Z,36.28
2023-04-27T08:51:22.554Z,35.90
2023-04-27T08:53:52.213Z,35.23
2023-04-27T08:56:20.058Z,35.41
2023-04-27T08:58:46.896Z,38.53
2023-04-27T09:01:13.995Z,35.21
2023-04-27T09:03:41.213Z,34.88
2023-04-27T09:06:08.950Z,36.48
2023-04-27T09:08:46.493Z,36.21
2023-04-27T09:11:15.017Z,38.51
2023-04-27T09:13:45.128Z,36.94
2023-04-27T09:16:15.465Z,38.06
2023-04-27T09:18:44.065Z,38.57
2023-04-27T09:21:10.929Z,38.70
2023-04-27T09:23:41.747Z,38.24
2023-04-27T09:26:08.874Z,38.15
2023-04-27T09:28:39.117Z,38.24
2023-04-27T09:31:09.213Z,39.14
2023-04-27T09:33:36.950Z,39.81
2023-04-27T09:36:06.445Z,40.58
2023-04-27T09:38:34.103Z,38.05
2023-04-27T09:41:01.266Z,37.43
2023-04-27T09:43:29.694Z,38.64
2023-04-27T09:45:59.365Z,36.06
2023-04-27T09:48:26.906Z,36.70
2023-04-27T09:50:53.969Z,38.81
2023-04-27T09:53:30.676Z,36.96
2023-04-27T09:56:13.645Z,33.81
2023-04-27T09:58:53.919Z,35.88
2023-04-27T10:01:44.749Z,34.88
2023-04-27T10:04:39.162Z,37.68
2023-04-27T10:07:14.400Z,33.41
2023-04-27T10:09:51.328Z,33.47
2023-04-27T10:12:18.119Z,34.61
2023-04-27T10:14:53.718Z,31.92
2023-04-27T10:17:32.255Z,31.36
2023-04-27T10:20:04.489Z,29.46
2023-04-27T10:22:41.319Z,30.79
2023-04-27T10:25:20.237Z,30.94
2023-04-27T10:27:58.163Z,30.40
2023-04-27T10:30:33.679Z,32.46
2023-04-27T10:33:09.318Z,32.59
2023-04-27T10:35:44.660Z,31.70
2023-04-27T10:38:17.532Z,31.82
2023-04-27T10:40:46.534Z,33.04
2023-04-27T10:43:17.977Z,34.55
2023-04-27T10:45:45.455Z,33.97
2023-04-27T10:48:16.112Z,33.64
2023-04-27T10:50:44.950Z,31.72
2023-04-27T10:53:11.780Z,32.44
2023-04-27T10:55:39.106Z,32.20
2023-04-27T10:58:06.203Z,30.18
2023-04-27T11:00:43.949Z,31.42
2023-04-27T11:03:12.613Z,32.44
2023-04-27T11:05:40.048Z,32.04
2023-04-27T11:08:09.237Z,31.52
2023-04-27T11:10:39.425Z,31.17
2023-04-27T11:13:08.407Z,29.59
2023-04-27T11:15:45.400Z,29.73
2023-04-27T11:18:12.717Z,29.57
2023-04-27T11:20:39.761Z,30.30
2023-04-27T11:23:07.715Z,29.16
2023-04-27T11:25:35.454Z,29.70
2023-04-27T11:28:02.405Z,31.11
2023-04-27T11:30:29.579Z,30.13
2023-04-27T11:32:56.586Z,28.40
2023-04-27T11:35:34.541Z,29.50
2023-04-27T11:38:01.513Z,28.18
2023-04-27T11:40:29.309Z,28.06
2023-04-27T11:43:00.004Z,29.27
2023-04-27T11:45:30.333Z,29.34
2023-04-27T11:48:00.883Z,29.63
2023-04-27T11:50:28.099Z,28.84
2023-04-27T11:52:55.952Z,27.96
2023-04-27T11:55:24.578Z,28.34
2023-04-27T11:57:57.628Z,27.10
2023-04-27T12:00:24.898Z,29.40
2023-04-27T12:02:52.033Z,26.92
2023-04-27T12:05:20.183Z,26.90
2023-04-27T12:07:47.160Z,28.21
2023-04-27T12:10:14.529Z,27.48
2023-04-27T12:12:41.699Z,26.42
2023-04-27T12:15:09.408Z,28.12
2023-04-27T12:17:36.278Z,27.31
2023-04-27T12:20:04.117Z,27.42
2023-04-27T12:22:30.921Z,29.27
2023-04-27T12:24:58.103Z,28.00
2023-04-27T12:27:26.375Z,26.91
2023-04-27T12:29:54.385Z,28.37
2023-04-27T12:32:21.240Z,28.49
2023-04-27T12:34:48.276Z,28.08
2023-04-27T12:37:15.082Z,28.07
2023-04-27T12:39:42.222Z,26.84
2023-04-27T12:42:09.030Z,27.07
2023-04-27T12:44:36.369Z,26.31
2023-04-27T12:47:04.187Z,27.46
2023-04-27T12:49:31.288Z,26.99
2023-04-27T12:51:58.474Z,26.78
2023-04-27T12:54:25.603Z,27.25
2023-04-27T12:56:52.405Z,27.55
2023-04-27T12:59:19.544Z,26.56
2023-04-27T13:01:46.366Z,26.33
2023-04-27T13:04:20.323Z,26.40
2023-04-27T13:06:47.994Z,26.71
2023-04-27T13:09:15.666Z,27.10
2023-04-27T13:11:42.686Z,27.84
2023-04-27T13:14:12.716Z,25.31
2023-04-27T13:16:40.228Z,25.51
2023-04-27T13:19:07.841Z,26.16
2023-04-27T13:21:34.652Z,26.28
2023-04-27T13:24:01.697Z,26.79
2023-04-27T13:26:28.501Z,25.00
2023-04-27T13:28:55.570Z,25.62
2023-04-27T13:31:22.362Z,25.92
2023-04-27T13:33:49.598Z,24.18
2023-04-27T13:36:16.476Z,25.52
2023-04-27T13:38:43.545Z,25.00
2023-04-27T13:41:10.394Z,23.83
2023-04-27T13:43:37.472Z,24.38
2023-04-27T13:46:05.507Z,26.21
2023-04-27T13:48:32.585Z,25.84
2023-04-27T13:50:59.444Z,26.86
2023-04-27T13:53:27.067Z,27.14
2023-04-27T13:55:55.393Z,26.36
2023-04-27T13:58:25.085Z,26.37
2023-04-27T14:00:53.313Z,24.05
2023-04-27T14:03:21.465Z,23.12
2023-04-27T14:05:50.723Z,22.36
2023-04-27T14:08:17.967Z,20.56
2023-04-27T14:10:46.011Z,19.36
2023-04-27T14:13:13.335Z,19.75
2023-04-27T14:15:41.137Z,18.68
2023-04-27T14:18:09.658Z,18.81
2023-04-27T14:20:38.145Z,17.17
2023-04-27T14:23:06.299Z,17.89
2023-04-27T14:25:34.402Z,17.38
2023-04-27T14:28:03.233Z,16.91
2023-04-27T14:30:31.604Z,16.50
2023-04-27T14:32:58.822Z,17.88
2023-04-27T14:35:25.724Z,18.24
2023-04-27T14:37:53.042Z,17.45
2023-04-27T14:40:20.188Z,18.14
2023-04-27T14:42:47.303Z,16.72
2023-04-27T14:45:15.884Z,17.40
2023-04-27T14:47:43.045Z,18.07
2023-04-27T14:50:11.614Z,17.65
2023-04-27T14:52:39.641Z,17.23
2023-04-27T14:55:07.104Z,17.11
2023-04-27T14:57:35.693Z,17.83
2023-04-27T15:00:09.787Z,17.60
2023-04-27T15:02:38.085Z,16.91
2023-04-27T15:05:05.846Z,16.91
2023-04-27T15:07:33.399Z,16.05
2023-04-27T15:10:00.238Z,16.80
2023-04-27T15:12:27.385Z,16.10
2023-04-27T15:14:54.212Z,16.55
2023-04-27T15:17:21.834Z,19.06
2023-04-27T15:19:48.638Z,18.23
2023-04-27T15:22:15.715Z,16.26
2023-04-27T15:24:42.500Z,16.40
2023-04-27T15:27:10.049Z,16.22
2023-04-27T15:29:37.185Z,17.45
2023-04-27T15:32:04.501Z,17.22
2023-04-27T15:34:31.373Z,17.63
2023-04-27T15:36:58.451Z,19.18
2023-04-27T15:39:25.393Z,18.42
2023-04-27T15:41:52.430Z,18.43
2023-04-27T15:44:19.293Z,19.52
2023-04-27T15:46:46.386Z,20.23
2023-04-27T15:49:13.612Z,20.47
2023-04-27T15:51:40.945Z,22.90
2023-04-27T15:54:07.784Z,25.26
2023-04-27T15:56:34.921Z,26.69
2023-04-27T15:59:02.037Z,26.92
2023-04-27T16:01:29.519Z,28.04
2023-04-27T16:03:56.814Z,28.82
2023-04-27T16:06:30.608Z,28.30
2023-04-27T16:09:01.279Z,28.85
2023-04-27T16:11:28.394Z,29.29
2023-04-27T16:13:55.210Z,29.94
2023-04-27T16:16:22.382Z,30.50
2023-04-27T16:18:49.514Z,31.14
2023-04-27T16:21:16.663Z,31.62
2023-04-27T16:23:43.530Z,31.11
2023-04-27T16:26:11.104Z,30.53
2023-04-27T16:28:38.086Z,32.41
2023-04-27T16:31:05.654Z,32.33
2023-04-27T16:33:32.584Z,32.46
2023-04-27T16:35:59.674Z,33.51
2023-04-27T16:38:26.782Z,32.31
2023-04-27T16:40:56.061Z,33.20
2023-04-27T16:43:22.938Z,32.96
2023-04-27T16:45:50.178Z,31.97
2023-04-27T16:48:17.556Z,31.76
2023-04-27T16:50:44.749Z,32.49
2023-04-27T16:53:15.048Z,31.71
2023-04-27T16:55:42.265Z,31.09
2023-04-27T16:58:09.062Z,30.44
2023-04-27T17:00:36.232Z,28.28
2023-04-27T17:03:03.136Z,27.31
2023-04-27T17:05:30.250Z,26.25
2023-04-27T17:07:57.034Z,25.97
2023-04-27T17:10:24.247Z,25.25
2023-04-27T17:12:51.363Z,25.27
2023-04-27T17:15:18.943Z,26.04
2023-04-27T17:17:45.963Z,27.99
2023-04-27T17:20:13.307Z,29.73
2023-04-27T17:22:40.183Z,30.06
2023-04-27T17:25:08.634Z,31.55
2023-04-27T17:27:35.482Z,32.93
2023-04-27T17:30:02.772Z,32.50
2023-04-27T17:32:29.675Z,33.10
2023-04-27T17:37:24.349Z,34.51
2023-04-27T17:39:52.990Z,35.01
2023-04-27T17:42:19.986Z,35.29
2023-04-27T17:44:47.131Z,35.65
2023-04-27T17:47:14.185Z,36.61
2023-04-27T17:49:41.292Z,36.77
2023-04-27T17:52:08.123Z,36.77
2023-04-27T17:54:35.229Z,36.64
2023-04-27T17:57:02.071Z,38.31
2023-04-27T17:59:29.213Z,36.94
2023-04-27T18:01:56.113Z,38.77
2023-04-27T18:04:23.396Z,39.45
2023-04-27T18:06:50.467Z,39.13
2023-04-27T18:09:17.664Z,38.62
2023-04-27T18:11:44.630Z,41.04
2023-04-27T18:14:11.788Z,42.77
2023-04-27T18:16:38.685Z,41.07
2023-04-27T18:19:05.719Z,42.27
2023-04-27T18:21:32.938Z,41.89
2023-04-27T18:23:59.995Z,41.92
2023-04-27T18:26:26.807Z,43.08
2023-04-27T18:28:58.984Z,43.34
2023-04-27T18:31:25.762Z,45.04
2023-04-27T18:33:52.899Z,44.85
2023-04-27T18:36:20.852Z,44.90
2023-04-27T18:38:50.904Z,47.11
2023-04-27T18:41:17.706Z,48.28
2023-04-27T18:43:45.044Z,49.84
2023-04-27T18:46:11.901Z,50.93
2023-04-27T18:48:38.967Z,53.24
2023-04-27T18:51:05.838Z,51.19
2023-04-27T18:53:32.952Z,51.36
2023-04-27T18:56:00.911Z,50.97
2023-04-27T18:58:28.127Z,50.89
2023-04-27T19:00:54.990Z,50.37
2023-04-27T19:03:22.195Z,51.69
2023-04-27T19:05:51.279Z,51.96
2023-04-27T19:08:18.337Z,52.77
2023-04-27T19:10:45.247Z,50.67
2023-04-27T19:13:12.426Z,54.86
2023-04-27T19:15:39.262Z,57.11
2023-04-27T19:18:10.959Z,56.25
2023-04-27T19:20:39.727Z,55.88
2023-04-27T19:23:09.273Z,58.30
2023-04-27T19:25:36.348Z,57.29
2023-04-27T19:28:04.828Z,58.71
2023-04-27T19:30:31.666Z,62.48
2023-04-27T19:32:58.741Z,61.71
2023-04-27T19:35:26.541Z,64.15
2023-04-27T19:37:53.605Z,63.78
2023-04-27T19:40:20.390Z,66.00
2023-04-27T19:42:47.968Z,65.91
2023-04-27T19:45:15.436Z,67.24
2023-04-27T19:47:42.527Z,65.96
2023-04-27T19:50:10.028Z,68.26
2023-04-27T19:52:37.134Z,67.64
2023-04-27T19:55:04.513Z,70.44
2023-04-27T19:57:31.551Z,69.30
2023-04-27T19:59:58.461Z,71.38
2023-04-27T20:02:25.834Z,69.35
2023-04-27T20:04:52.868Z,69.73
2023-04-27T20:07:20.283Z,71.77
2023-04-27T20:09:47.179Z,71.64
2023-04-27T20:12:34.910Z,71.63
2023-04-27T20:15:02.175Z,69.89
2023-04-27T20:17:30.079Z,72.27
2023-04-27T20:19:57.163Z,72.67
2023-04-27T20:22:24.229Z,75.28
2023-04-27T20:24:51.243Z,74.85
2023-04-27T20:27:18.513Z,76.30
2023-04-27T20:29:47.334Z,76.01
2023-04-27T20:32:17.400Z,75.49
2023-04-27T20:34:44.213Z,75.14
2023-04-27T20:37:11.298Z,74.13
2023-04-27T20:39:38.427Z,75.92
2023-04-27T20:42:06.751Z,75.62
2023-04-27T20:44:34.005Z,74.86
2023-04-27T20:47:01.175Z,73.21
2023-04-27T20:49:34.990Z,72.39
2023-04-27T20:52:03.084Z,77.40
2023-04-27T20:54:32.869Z,73.10
2023-04-27T20:57:03.693Z,74.19
2023-04-27T20:59:30.577Z,75.24
2023-04-27T21:01:57.648Z,74.63
2023-04-27T21:04:24.548Z,70.98
2023-04-27T21:06:51.733Z,68.90
2023-04-27T21:09:18.549Z,72.64
2023-04-27T21:11:45.723Z,73.17
2023-04-27T21:14:12.567Z,73.49
2023-04-27T21:16:39.701Z,75.60
2023-04-27T21:19:08.764Z,73.72
2023-04-27T21:21:36.137Z,75.85
2023-04-27T21:24:07.925Z,70.49
2023-04-27T21:26:35.668Z,68.94
2023-04-27T21:29:05.405Z,69.30
2023-04-27T21:31:33.559Z,71.33
2023-04-27T21:34:00.863Z,71.57
2023-04-27T21:36:28.000Z,71.11
2023-04-27T21:38:54.764Z,72.78
2023-04-27T21:41:21.980Z,71.86
2023-04-27T21:43:48.808Z,72.95
2023-04-27T21:46:16.005Z,72.83
2023-04-27T21:48:42.776Z,73.82
2023-04-27T21:51:09.808Z,76.71
2023-04-27T21:53:37.149Z,77.99
2023-04-27T21:56:04.378Z,77.24
2023-04-27T21:58:31.175Z,77.69
2023-04-27T22:00:58.552Z,77.49
2023-04-27T22:03:25.981Z,80.99
2023-04-27T22:05:54.015Z,80.59
2023-04-27T22:08:21.840Z,80.69
2023-04-27T22:10:48.962Z,81.37
2023-04-27T22:13:19.420Z,82.21
2023-04-27T22:15:48.210Z,82.17
2023-04-27T22:18:15.466Z,83.04
2023-04-27T22:20:43.256Z,83.63
2023-04-27T22:23:10.864Z,85.27
2023-04-27T22:25:38.426Z,85.12
2023-04-27T22:28:05.281Z,86.20
2023-04-27T22:30:32.408Z,86.72
2023-04-27T22:32:59.279Z,85.36
2023-04-27T22:35:27.882Z,86.18
2023-04-27T22:37:55.880Z,86.71
2023-04-27T22:40:23.184Z,88.02
2023-04-27T22:42:50.111Z,88.44
2023-04-27T22:45:17.333Z,89.11
2023-04-27T22:47:44.750Z,89.44
2023-04-27T22:50:12.484Z,90.54
2023-04-27T22:52:42.286Z,92.42
2023-04-27T22:55:11.258Z,92.40
2023-04-27T22:57:38.987Z,93.17
2023-04-27T23:00:08.874Z,93.28
2023-04-27T23:02:36.122Z,92.88
2023-04-27T23:05:03.921Z,94.62
2023-04-27T23:07:30.783Z,94.89
2023-04-27T23:10:00.852Z,95.70
2023-04-27T23:12:28.181Z,96.46
2023-04-27T23:14:55.472Z,94.80
2023-04-27T23:17:22.876Z,94.65
2023-04-27T23:19:50.262Z,95.28
2023-04-27T23:22:17.008Z,95.96
2023-04-27T23:24:44.014Z,96.77
2023-04-27T23:27:10.754Z,97.58
2023-04-27T23:29:38.078Z,97.48
2023-04-27T23:32:05.220Z,98.21
2023-04-27T23:34:32.875Z,99.82
2023-04-27T23:36:59.811Z,98.79
2023-04-27T23:39:27.965Z,98.39
2023-04-27T23:41:54.793Z,99.73
2023-04-27T23:44:22.160Z,97.52
2023-04-27T23:46:49.032Z,98.23
2023-04-27T23:49:18.568Z,97.35
2023-04-27T23:51:45.761Z,98.57
2023-04-27T23:54:12.901Z,98.18
2023-04-27T23:56:39.736Z,97.98
2023-04-27T23:59:06.896Z,98.41
